パゴパゴ の空港の天気 - METARとTAF

パゴパゴ国際空港 ( NSTU / PPG ) - アメリカ領サモア パゴパゴ
飛行場実況気象(Metar)
観測時間10/15 05:50 SST (10/15 16:50 UTC)
風向・風速東南東 6m/s
視程10km以上
天気現象
少しの雲 雲底高度 490m
全天の4割程度の雲 雲底高度 1220m
気温27.3℃
湿度84%
気圧1010.2hPa
METARNSTU 151650Z 11012KT 12SM FEW016 SCT040 27/24 A2983 RMK SLP102 T02730244
過去の天気等 Google飛行場航空写真 Wunderground天気予報

過去48時間のMETAR

飛行場予報(TAF)
発表時間: 10/15 06:24 SST (10/15 17:24 UTC)
予報対象時間: 15日7時 SST ~ 16日7時 SST
風向・風速東 6m/s
視程10km以上
少しの雲 雲底高度 460m
全天の4割程度の雲 雲底高度 1220m
15日13時 SST から
風向・風速東北東 5m/s
視程10km以上
天気現象周辺でしゅう雨
全天の4割程度の雲 雲底高度 610m
全天の4割程度の雲 雲底高度 1220m
全天の8割程度の雲 雲底高度 4570m
NSTU 151724Z 1518/1618 10011KT P6SM FEW015 SCT040
FM160000 07010KT P6SM VCSH SCT020 SCT040 BKN150